Date,TemperatureHighF,TemperatureAvgF,TemperatureLowF,DewpointHighF,DewpointAvgF,DewpointLowF,HumidityHigh,HumidityAvg,HumidityLow,PressureMaxIn,PressureMinIn,WindSpeedMaxMPH,WindSpeedAvgMPH,GustSpeedMaxMPH,PrecipitationSumIn
2013-10-1,68.0,67.1,66.0,-99.9,-99.9,-99.9,0,0,100,29.94,29.93,0,-999,0,0.00
2013-10-2,83.0,68.4,54.0,-99.9,-99.9,-99.9,0,0,100,30.01,29.91,10,-828,13,0.00
2013-10-3,78.0,65.5,53.0,-99.9,-99.9,-99.9,0,0,100,30.13,30.01,3,-912,5,0.00
2013-10-4,84.0,68.4,59.0,-99.9,-99.9,-99.9,0,0,100,30.07,29.96,5,-975,9,0.04
2013-10-5,78.0,69.3,65.0,-99.9,-99.9,-99.9,0,0,100,30.10,30.02,6,-915,8,0.00
2013-10-6,68.0,66.7,66.0,-99.9,-99.9,-99.9,0,0,100,30.10,30.03,0,-999,8,0.01
2013-10-7,76.0,67.1,56.0,-99.9,-99.9,-99.9,0,0,100,30.03,29.75,9,-748,25,0.45
2013-10-8,68.0,57.1,48.0,-99.9,-99.9,-99.9,0,0,100,30.35,29.98,9,-693,12,0.00
2013-10-9,63.0,54.4,47.0,-99.9,-99.9,-99.9,0,0,100,30.43,30.31,7,-657,14,0.00
2013-10-10,62.0,56.8,52.0,-99.9,-99.9,-99.9,0,0,100,30.30,30.10,7,-572,12,0.01
2013-10-11,68.0,63.7,58.0,-99.9,-99.9,-99.9,0,0,100,30.11,30.03,8,-372,15,0.00
2013-10-12,76.0,64.8,57.0,-99.9,-99.9,-99.9,0,0,100,30.29,30.09,13,-558,15,0.00
2013-10-13,67.0,57.7,51.0,-99.9,-99.9,-99.9,0,0,100,30.42,30.29,8,-350,16,0.00
2013-10-14,71.0,57.0,49.0,-99.9,-99.9,-99.9,0,0,100,30.37,30.24,6,-868,6,0.00
2013-10-15,75.0,58.0,47.0,-99.9,-99.9,-99.9,0,0,100,30.26,30.13,5,-908,8,0.00
2013-10-16,68.0,58.8,50.0,-99.9,-99.9,-99.9,0,0,100,30.13,29.92,6,-910,6,0.00
2013-10-17,76.0,66.6,62.0,-99.9,-99.9,-99.9,0,0,100,29.92,29.68,6,-665,8,0.02
2013-10-18,69.0,61.0,51.0,-99.9,-99.9,-99.9,0,0,100,29.98,29.67,7,-693,17,0.00
2013-10-19,64.0,53.9,42.0,-99.9,-99.9,-99.9,0,0,100,30.00,29.76,3,-874,11,0.02
2013-10-20,65.0,53.5,45.0,-99.9,-99.9,-99.9,0,0,100,30.07,29.76,7,-873,15,0.00
2013-10-21,69.0,53.3,39.0,-99.9,-99.9,-99.9,0,0,100,30.16,29.99,5,-874,12,0.00
2013-10-22,65.0,52.3,42.0,-99.9,-99.9,-99.9,0,0,100,29.99,29.75,3,-916,10,0.00
2013-10-23,55.0,45.9,38.0,-99.9,-99.9,-99.9,0,0,100,29.82,29.63,6,-914,12,0.00
2013-10-24,55.0,45.2,36.0,-99.9,-99.9,-99.9,0,0,100,30.01,29.76,11,-915,14,0.01
2013-10-25,53.0,43.2,34.0,-99.9,-99.9,-99.9,0,0,100,30.23,30.01,7,-915,15,0.00
2013-10-26,55.0,44.9,35.0,-99.9,-99.9,-99.9,0,0,100,30.22,29.91,14,-625,16,0.00
2013-10-27,57.0,48.0,35.0,-99.9,-99.9,-99.9,0,0,100,30.12,29.85,7,-824,16,0.00
2013-10-28,64.0,47.3,33.0,-99.9,-99.9,-99.9,0,0,100,30.32,30.12,7,-790,11,0.00
2013-10-29,56.0,45.7,37.0,-99.9,-99.9,-99.9,0,0,100,30.43,30.32,0,-999,7,0.00
2013-10-30,58.0,47.1,37.0,-99.9,-99.9,-99.9,0,0,100,30.35,30.18,0,-999,6,0.00
2013-10-31,64.0,53.6,41.0,-99.9,-99.9,-99.9,0,0,100,30.24,29.80,9,-933,13,0.00